Data for 10/03/2010

Time Sea-Level Adjusted Pressure Absolute Pressure Temperature Relative Humidity Dew Point   
(mb) (inHg) (mb) (inHg) (C) (F) (%) (C) (F)
00:05 1020 30.12 849 25.07 15.5 59.8 32 -1.2 29.9
00:10 1020 30.12 849 25.07 15.9 60.6 31 -1.3 29.7
00:15 1020 30.12 849 25.07 15.8 60.4 31 -1.2 29.9
00:20 1020 30.12 849 25.07 15.8 60.4 34 -0 32
00:25 1020 30.12 849 25.07 15.8 60.4 31 -1.3 29.7
00:30 1020 30.12 849 25.07 16.6 61.8 34 0.8 33.4
00:35 1020 30.12 849 25.07 15.6 60.1 33 -0.5 31.1
00:40 1020 30.12 849 25.07 15.2 59.4 31 -1.6 29.2
00:45 1020 30.12 849 25.07 15.7 60.2 33 -0.3 31.5
00:50 1020 30.12 849 25.07 15.4 59.6 33 -0.9 30.5
00:55 1020 30.12 849 25.07 15.3 59.6 33 -0.9 30.3
01:00 1020 30.12 849 25.07 15 59 38 0.8 33.5
01:05 1020 30.12 849 25.07 15.4 59.8 33 -0.8 30.6
01:10 1020 30.12 849 25.07 15.6 60 31 -1.5 29.2
01:15 1020 30.12 849 25.07 15.2 59.4 34 -0.3 31.5
01:20 1020 30.12 849 25.07 14.3 57.7 36 -0.3 31.4
01:25 1020 30.12 849 25.07 13.4 56.2 41 0.7 33.2
01:30 1020 30.12 849 25.07 13 55.3 40 -0.3 31.4
01:35 1020 30.12 849 25.07 12.8 55 40 -0.5 31
01:40 1020 30.12 849 25.07 12.9 55.2 40 -0.3 31.4
01:45 1020 30.12 849 25.07 13.5 56.3 35 -1.7 28.9
01:50 1020 30.12 849 25.07 14.4 57.9 32 -1.8 28.8
01:55 1020 30.12 849 25.07 14.6 58.3 33 -1.3 29.6
02:00 1020 30.12 849 25.07 14.9 58.8 32 -1.7 28.9
02:05 1020 30.12 849 25.07 15 59.1 31 -1.8 28.7
02:10 1020 30.12 849 25.07 15.2 59.3 32 -1.4 29.5
02:15 1020 30.12 849 25.07 14.8 58.7 33 -1.2 29.9
02:20 1020 30.12 849 25.07 14.4 57.9 34 -1.3 29.7
02:25 1020 30.12 849 25.07 14.2 57.6 35 -1.1 30
02:30 1020 30.12 849 25.07 13.9 56.9 36 -0.9 30.4
02:35 1020 30.12 849 25.07 13.8 56.8 37 -0.8 30.6
02:40 1020 30.12 849 25.07 13.6 56.4 36 -1.2 29.8
02:45 1020 30.12 849 25.07 14.1 57.4 34 -1.4 29.5
02:50 1020 30.12 849 25.07 14.1 57.4 35 -1 30.1
02:55 1020 30.12 849 25.07 13.8 56.8 36 -1 30.3
03:00 1020 30.12 849 25.07 13.8 56.8 35 -1.4 29.5
03:05 1020 30.12 849 25.07 13.9 57 36 -1 30.3
03:10 1020 30.12 849 25.07 13.4 56.2 37 -0.7 30.7
03:15 1020 30.12 849 25.07 13.3 56 37 -0.9 30.4
03:20 1020 30.12 849 25.07 13.3 55.9 38 -0.8 30.5
03:25 1020 30.12 849 25.07 13.3 55.9 37 -1.1 30
03:30 1020 30.12 849 25.07 13.5 56.3 36 -1 30.2
03:35 1020 30.12 849 25.07 13.5 56.4 35 -1.6 29.2
03:40 1020 30.12 849 25.07 14 57.1 33 -1.8 28.7
03:45 1020 30.12 849 25.07 14.3 57.7 34 -1.3 29.6
03:50 1020 30.12 849 25.07 13.9 57.1 34 -1.4 29.4
03:55 1019 30.09 849 25.07 13.8 56.8 35 -1.2 29.8
04:00 1019 30.09 849 25.07 13.7 56.6 36 -1.1 30.1
04:05 1019 30.09 849 25.07 13.5 56.3 36 -1.2 29.8
04:10 1019 30.09 849 25.07 13.6 56.4 36 -1.1 30
04:15 1019 30.09 849 25.07 13.8 56.9 33 -2 28.3
04:20 1019 30.09 849 25.07 14.4 58 32 -1.8 28.8
04:25 1019 30.09 848 25.04 14.4 57.8 33 -1.4 29.4
04:30 1019 30.09 848 25.04 14.1 57.3 35 -1.1 30
04:35 1019 30.09 849 25.07 13.7 56.7 36 -1.2 29.8
04:40 1019 30.09 849 25.07 13.7 56.7 35 -1.5 29.4
04:45 1019 30.09 848 25.04 13.9 57 33 -1.9 28.7
04:50 1019 30.09 848 25.04 14.1 57.4 34 -1.6 29.2
04:55 1019 30.09 849 25.07 14.3 57.8 32 -2 28.5
05:00 1019 30.09 849 25.07 15 59.1 29 -2.5 27.4
05:05 1019 30.09 849 25.07 15.4 59.8 30 -1.8 28.8
05:10 1019 30.09 849 25.07 15.3 59.5 30 -1.9 28.6
05:15 1019 30.09 849 25.07 15.3 59.5 29 -2.5 27.4
05:20 1019 30.09 849 25.07 15.6 60.1 29 -2.5 27.6
05:25 1019 30.09 849 25.07 15.6 60.1 30 -1.6 29.1
05:30 1019 30.09 849 25.07 14.9 58.8 32 -1.4 29.5
05:35 1019 30.09 849 25.07 14.2 57.6 34 -1.5 29.3
05:40 1019 30.09 849 25.07 14 57.3 33 -1.9 28.7
05:45 1019 30.09 849 25.07 13.9 57 34 -1.8 28.8
05:50 1019 30.09 849 25.07 14 57.2 32 -2.3 27.8
05:55 1019 30.09 849 25.07 14.2 57.5 33 -1.7 28.9
06:00 1019 30.09 849 25.07 13.9 56.9 34 -1.6 29
06:05 1019 30.09 849 25.07 13.7 56.6 34 -1.8 28.7
06:10 1019 30.09 849 25.07 13.8 56.8 38 -0.1 31.9
06:15 1019 30.09 849 25.07 13.1 55.6 41 0.2 32.3
06:20 1019 30.09 849 25.07 11.9 53.4 47 0.9 33.7
06:25 1019 30.09 849 25.07 10.8 51.4 48 0.2 32.4
06:30 1019 30.09 849 25.07 11.1 51.9 45 -0.3 31.5
06:35 1019 30.09 849 25.07 11.3 52.4 43 -0.8 30.5
06:40 1019 30.09 849 25.07 12.1 53.9 41 -0.8 30.6
06:45 1019 30.09 849 25.07 12.2 54 40 -0.9 30.5
06:50 1019 30.09 849 25.07 13 55.3 34 -2.6 27.3
06:55 1019 30.09 849 25.07 13.9 57 33 -1.9 28.6
07:00 1019 30.09 849 25.07 14.1 57.4 32 -2.4 27.8
07:05 1019 30.09 849 25.07 14.4 57.9 33 -1.4 29.5
07:10 1019 30.09 849 25.07 14.3 57.8 32 -1.9 28.6
07:15 1019 30.09 849 25.07 14.5 58 32 -2 28.4
07:20 1019 30.09 849 25.07 14.5 58.1 32 -2 28.5
07:25 1019 30.09 849 25.07 14.6 58.2 32 -1.8 28.8
07:30 1019 30.09 849 25.07 14.5 58 32 -2.1 28.2
07:35 1019 30.09 849 25.07 14.3 57.8 33 -1.7 28.9
07:40 1019 30.09 849 25.07 14 57.3 35 -1 30.1
07:45 1019 30.09 849 25.07 13.7 56.7 34 -1.9 28.6
07:50 1019 30.09 849 25.07 13.7 56.7 34 -1.8 28.7
07:55 1019 30.09 849 25.07 13.7 56.6 36 -1.2 29.9
08:00 1019 30.09 849 25.07 13 55.4 37 -1.4 29.6
08:05 1019 30.09 849 25.07 12.9 55.2 34 -2.5 27.5
08:10 1019 30.09 849 25.07 13.8 56.9 32 -2.3 27.8
08:15 1019 30.09 849 25.07 14.1 57.4 32 -2.1 28.2
08:20 1019 30.09 849 25.07 14.1 57.4 34 -1.4 29.4
08:25 1019 30.09 849 25.07 13.8 56.8 36 -0.8 30.5
08:30 1019 30.09 849 25.07 13.3 55.9 39 -0.2 31.6
08:35 1019 30.09 849 25.07 13.5 56.2 39 -0.3 31.4
08:40 1019 30.09 849 25.07 13.2 55.8 37 -0.9 30.4
08:45 1019 30.09 849 25.07 13.5 56.3 38 -0.6 30.9
08:50 1019 30.09 849 25.07 13.7 56.6 39 0.2 32.3
08:55 1019 30.09 849 25.07 13.8 56.9 38 -0.2 31.7
09:00 1019 30.09 849 25.07 13.9 57 40 0.5 32.8
09:05 1019 30.09 849 25.07 14.1 57.5 39 0.5 32.9
09:10 1019 30.09 849 25.07 14.5 58.2 37 0.3 32.5
09:15 1019 30.09 849 25.07 15.1 59.2 38 1 33.7
09:20 1019 30.09 849 25.07 15.3 59.5 39 1.5 34.7
09:25 1019 30.09 849 25.07 15.8 60.4 39 2.1 35.8
09:30 1019 30.09 849 25.07 16.3 61.3 38 1.9 35.4
09:35 1019 30.09 849 25.07 16.7 62 37 2.1 35.8
09:40 1019 30.09 849 25.07 17.2 62.9 32 0.5 32.9
09:45 1019 30.09 849 25.07 17.5 63.4 34 1.7 35
09:50 1019 30.09 848 25.04 17.9 64.2 31 0.8 33.4
09:55 1019 30.09 848 25.04 18.3 65 31 1.2 34.1
10:00 1019 30.09 848 25.04 19 66.1 30 1 33.9
10:05 1019 30.09 848 25.04 19.7 67.4 28 0.8 33.4
10:10 1019 30.09 848 25.04 20 68 28 1.3 34.3
10:15 1019 30.09 848 25.04 19.4 66.9 31 2.2 35.9
10:20 1019 30.09 848 25.04 20.1 68.1 29 1.6 34.8
10:25 1019 30.09 848 25.04 20.6 69.1 29 2 35.6
10:30 1019 30.09 848 25.04 20.3 68.5 30 2.4 36.3
10:35 1019 30.09 848 25.04 20.7 69.2 29 2.3 36.1
10:40 1019 30.09 848 25.04 21 69.8 28 2 35.7
10:45 1019 30.09 848 25.04 21.1 70.1 27 1.5 34.7
10:50 1019 30.09 848 25.04 21 69.7 27 1.4 34.6
10:55 1019 30.09 848 25.04 21.2 70.1 27 1.6 34.9
11:00 1019 30.09 848 25.04 21.6 70.8 26 1.6 34.9
11:05 1019 30.09 848 25.04 22.3 72.2 25 1.7 35
11:10 1019 30.09 848 25.04 22.8 73 25 2.1 35.9
11:15 1019 30.09 848 25.04 22.7 72.8 27 2.8 37.1
11:20 1019 30.09 848 25.04 22.6 72.7 27 2.7 36.8
11:25 1019 30.09 848 25.04 23 73.4 25 2.4 36.3
11:30 1019 30.09 848 25.04 23.1 73.6 27 3.1 37.6
11:35 1019 30.09 848 25.04 22.2 71.9 27 2.3 36.1
11:40 1019 30.09 848 25.04 22.8 73 26 2.3 36.2
11:45 1018 30.06 848 25.04 23.4 74.1 25 2.7 36.8
11:50 1018 30.06 848 25.04 22.5 72.5 28 3.1 37.6
11:55 1018 30.06 848 25.04 22 71.7 29 3.2 37.8
12:00 1018 30.06 848 25.04 21.9 71.5 29 3.1 37.6
12:05 1018 30.06 847 25.01 22.5 72.6 26 2.5 36.6
12:10 1018 30.06 847 25.01 24 75.1 25 2.9 37.3
12:15 1018 30.06 847 25.01 24.5 76 24 3.1 37.5
12:20 1018 30.06 847 25.01 24.4 76 27 4.3 39.7
12:25 1018 30.06 847 25.01 23.6 74.4 26 3.2 37.8
12:30 1018 30.06 847 25.01 23.9 74.9 27 4.2 39.6
12:35 1018 30.06 847 25.01 22.9 73.3 28 3.5 38.3
12:40 1018 30.06 847 25.01 23.6 74.5 25 2.9 37.2
12:45 1018 30.06 847 25.01 23.8 74.8 25 2.8 37
12:50 1018 30.06 847 25.01 24.1 75.3 25 3.2 37.7
12:55 1018 30.06 847 25.01 24.7 76.5 25 3.4 38.1
13:00 1018 30.06 847 25.01 24.9 76.9 25 3.5 38.3
13:05 1018 30.06 847 25.01 25.2 77.4 25 3.9 39
13:10 1018 30.06 847 25.01 24.9 76.8 25 3.6 38.4
13:15 1018 30.06 847 25.01 24.6 76.2 26 3.8 38.9
13:20 1017 30.03 847 25.01 24.7 76.4 25 3.6 38.5
13:25 1017 30.03 847 25.01 24.9 76.9 24 3.4 38.1
13:30 1017 30.03 847 25.01 26.1 79 24 4 39.1
13:35 1017 30.03 846 24.98 25.8 78.4 25 4.3 39.7
13:40 1017 30.03 846 24.98 25.6 78.1 24 4 39.2
13:45 1017 30.03 846 24.98 26.7 80.1 21 3 37.4
13:50 1017 30.03 846 24.98 26.7 80.1 25 5.3 41.6
13:55 1017 30.03 846 24.98 26.5 79.6 24 4.5 40.2
14:00 1017 30.03 846 24.98 27 80.6 23 4.2 39.6
14:05 1017 30.03 846 24.98 27.6 81.6 23 5.2 41.3
14:10 1017 30.03 846 24.98 27 80.7 24 5 41
14:15 1017 30.03 846 24.98 27.1 80.8 25 5.4 41.7
14:20 1017 30.03 846 24.98 27.3 81.1 24 5.1 41.3
14:25 1016 30 846 24.98 27.6 81.7 24 5.4 41.7
14:30 1016 30 846 24.98 27.1 80.8 25 5.7 42.2
14:35 1016 30 845 24.95 26.4 79.5 27 6.3 43.4
14:40 1016 30 845 24.95 26 78.7 26 5.3 41.5
14:45 1016 30 845 24.95 26.4 79.5 27 5.9 42.7
14:50 1016 30 845 24.95 26.8 80.2 26 5.7 42.3
14:55 1016 30 845 24.95 27.1 80.8 24 5 41
15:00 1016 30 845 24.95 27.5 81.5 24 5.2 41.4
15:05 1016 30 845 24.95 27.7 81.8 24 5.4 41.8
15:10 1016 30 845 24.95 27.1 80.7 24 5.2 41.4
15:15 1016 30 845 24.95 27.6 81.6 22 4 39.3
15:20 1016 30 845 24.95 27.9 82.3 22 4.6 40.3
15:25 1016 30 845 24.95 28.3 83 21 3.9 39.1
15:30 1016 30 845 24.95 29.5 85 19 3.4 38.1
15:35 1016 30 845 24.95 29.6 85.3 19 4 39.1
15:40 1016 30 845 24.95 29.6 85.3 17 2.2 35.9
15:45 1016 30 845 24.95 29.4 84.9 17 2.1 35.8
15:50 1016 30 845 24.95 28.9 84.1 18 2.7 36.8
15:55 1016 30 845 24.95 28.9 84 16 0.8 33.4
16:00 1016 30 845 24.95 29.2 84.6 17 1.9 35.3
16:05 1016 30 845 24.95 29 84.3 14 -0.9 30.4
16:10 1015 29.97 845 24.95 28.6 83.5 14 -0.9 30.4
16:15 1015 29.97 845 24.95 29 84.2 13 -1.4 29.5
16:20 1015 29.97 845 24.95 29.9 85.7 13 -1.3 29.6
16:25 1015 29.97 845 24.95 30.2 86.3 12 -2.1 28.1
16:30 1015 29.97 845 24.95 29.6 85.3 10 -4.5 23.9
16:35 1015 29.97 845 24.95 29.2 84.6 13 -1.4 29.5
16:40 1015 29.97 844 24.92 29.1 84.3 13 -2.1 28.3
16:45 1015 29.97 844 24.92 29 84.2 13 -2.2 28
16:50 1015 29.97 844 24.92 29.1 84.5 11 -4.1 24.6
16:55 1015 29.97 844 24.92 29 84.1 12 -2.8 26.9
17:00 1015 29.97 844 24.92 28.9 84 12 -3.2 26.3
17:05 1015 29.97 844 24.92 28.8 83.9 12 -3.5 25.8
17:10 1015 29.97 844 24.92 29.1 84.3 12 -2.5 27.5
17:15 1015 29.97 844 24.92 28.8 83.9 12 -3.3 26.1
17:20 1015 29.97 844 24.92 28.9 84 13 -2.4 27.7
17:25 1015 29.97 844 24.92 29.4 84.8 14 -0.7 30.7
17:30 1015 29.97 844 24.92 30 85.9 14 0.2 32.4
17:35 1015 29.97 844 24.92 29.4 85 19 3.6 38.4
17:40 1015 29.97 844 24.92 28.4 83.2 17 1.2 34.2
17:45 1015 29.97 844 24.92 28.1 82.6 15 -0.5 31
17:50 1015 29.97 844 24.92 27.9 82.2 15 -0.4 31.3
17:55 1015 29.97 844 24.92 27.7 81.9 17 0.5 33
18:00 1015 29.97 844 24.92 27.7 81.8 12 -3.9 25
18:05 1015 29.97 844 24.92 27.8 82.1 13 -3.3 26.1
18:10 1015 29.97 844 24.92 27.6 81.6 15 -1.3 29.6
18:15 1015 29.97 844 24.92 27.3 81.1 14 -2.1 28.2
18:20 1015 29.97 844 24.92 27.6 81.6 14 -2 28.4
18:25 1015 29.97 844 24.92 26.9 80.5 20 2.7 36.8
18:30 1015 29.97 844 24.92 25.7 78.3 20 1.6 34.8
18:35 1015 29.97 844 24.92 25.4 77.8 23 3.3 38
18:40 1015 29.97 844 24.92 24.7 76.4 25 3.3 38
18:45 1015 29.97 844 24.92 24.3 75.7 26 3.8 38.8
18:50 1015 29.97 844 24.92 23.5 74.3 26 3.3 37.9
18:55 1015 29.97 844 24.92 23.3 74 28 3.9 39
19:00 1015 29.97 844 24.92 22.8 73 28 3.7 38.6
19:05 1015 29.97 844 24.92 22.4 72.3 28 3.4 38.1
19:10 1015 29.97 844 24.92 21.9 71.4 23 0.2 32.4
19:15 1015 29.97 844 24.92 22.6 72.7 23 0.6 33.1
19:20 1015 29.97 844 24.92 22.3 72.2 25 1.5 34.6
19:25 1015 29.97 844 24.92 21.6 70.9 31 4 39.2
19:30 1015 29.97 844 24.92 20.7 69.2 32 3.7 38.7
19:35 1015 29.97 844 24.92 21.1 69.9 26 1 33.8
19:40 1015 29.97 844 24.92 21.1 69.9 29 2.5 36.4
19:45 1015 29.97 844 24.92 20.6 69 28 1.7 35
19:50 1015 29.97 844 24.92 20.1 68.2 30 2 35.6
19:55 1015 29.97 844 24.92 20 68 28 1.1 34
20:00 1015 29.97 844 24.92 19.9 67.9 29 1.5 34.7
20:05 1015 29.97 844 24.92 20.2 68.4 29 1.9 35.4
20:10 1015 29.97 844 24.92 20.1 68.3 27 0.9 33.6
20:15 1015 29.97 844 24.92 20 68.1 29 1.8 35.3
20:20 1015 29.97 844 24.92 19.5 67.1 28 0.8 33.4
20:25 1015 29.97 844 24.92 19.3 66.7 27 0.1 32.1
20:30 1015 29.97 844 24.92 19.5 67.1 25 -0.7 30.8
20:35 1015 29.97 844 24.92 19.7 67.4 26 -0.3 31.4
20:40 1015 29.97 844 24.92 19.4 66.9 26 -0.2 31.7
20:45 1015 29.97 844 24.92 19.1 66.3 26 -0.9 30.4
20:50 1015 29.97 844 24.92 19 66.2 26 -0.7 30.7
20:55 1015 29.97 844 24.92 18.8 65.8 27 -0.6 31
21:00 1015 29.97 844 24.92 18.7 65.7 26 -1.2 29.9
21:05 1015 29.97 844 24.92 18.7 65.6 26 -1 30.2
21:10 1015 29.97 844 24.92 18.4 65.1 26 -1.6 29.2
21:15 1015 29.97 844 24.92 18.5 65.3 26 -1.5 29.4
21:20 1015 29.97 844 24.92 18.4 65 25 -2 28.4
21:25 1015 29.97 844 24.92 18.2 64.7 25 -2.2 28.1
21:30 1015 29.97 844 24.92 18.3 64.9 24 -2.4 27.6
21:35 1015 29.97 844 24.92 18.4 65 24 -2.5 27.6
21:40 1015 29.97 844 24.92 18.5 65.3 24 -2.4 27.7
21:45 1015 29.97 844 24.92 18.5 65.3 23 -2.8 27
21:50 1015 29.97 844 24.92 18.6 65.4 23 -2.7 27.2
21:55 1015 29.97 844 24.92 18.6 65.5 22 -3.1 26.3
22:00 1015 29.97 844 24.92 18.8 65.8 23 -2.5 27.5
22:05 1015 29.97 844 24.92 18.7 65.7 22 -3.1 26.4
22:10 1015 29.97 844 24.92 18.8 65.8 22 -3 26.6
22:15 1015 29.97 844 24.92 18.7 65.7 22 -3 26.6
22:20 1015 29.97 844 24.92 18.5 65.4 22 -3.4 26
22:25 1015 29.97 844 24.92 18.5 65.4 24 -2.5 27.5
22:30 1015 29.97 844 24.92 18.7 65.6 21 -3.9 25.1
22:35 1015 29.97 844 24.92 18.7 65.7 21 -3.8 25.1
22:40 1015 29.97 844 24.92 18.7 65.7 22 -3.5 25.8
22:45 1015 29.97 844 24.92 19.1 66.4 20 -4.2 24.5
22:50 1015 29.97 844 24.92 18.8 65.8 25 -1.7 29
22:55 1015 29.97 844 24.92 18.4 65.2 21 -4.4 24.1
23:00 1015 29.97 844 24.92 19 66.3 20 -4.1 24.6
23:05 1015 29.97 844 24.92 18.4 65 24 -2.6 27.3
23:10 1015 29.97 844 24.92 17.9 64.2 23 -3.6 25.6
23:15 1015 29.97 844 24.92 17.2 63 24 -3.3 26.1
23:20 1015 29.97 844 24.92 17.4 63.4 24 -3.3 26
23:25 1015 29.97 844 24.92 17.2 63 24 -3.5 25.8
23:30 1015 29.97 844 24.92 17.1 62.8 26 -2.3 27.9
23:35 1015 29.97 844 24.92 17.5 63.5 23 -3.8 25.2
23:40 1015 29.97 844 24.92 17.6 63.6 24 -3.3 26
23:45 1015 29.97 844 24.92 17.6 63.6 22 -4 24.7
23:50 1015 29.97 844 24.92 17.9 64.2 25 -2.3 27.9
23:55 1015 29.97 844 24.92 17.7 63.8 22 -4.1 24.7
24:00 1015 29.97 844 24.92 18.4 65 22 -3.6 25.4